createdAt,value
2023-01-26T00:04:01.821Z,979.46
2023-01-26T00:09:01.710Z,979.30
2023-01-26T00:14:01.638Z,979.20
2023-01-26T00:19:01.566Z,979.16
2023-01-26T00:24:01.558Z,979.11
2023-01-26T00:29:01.461Z,979.06
2023-01-26T00:34:01.405Z,979.05
2023-01-26T00:39:01.326Z,978.97
2023-01-26T00:44:01.271Z,978.93
2023-01-26T00:49:01.221Z,978.88
2023-01-26T00:54:01.171Z,978.88
2023-01-26T00:59:01.095Z,978.85
2023-01-26T01:04:01.016Z,978.86
2023-01-26T01:09:00.967Z,978.82
2023-01-26T01:14:00.895Z,978.86
2023-01-26T01:19:00.841Z,978.92
2023-01-26T01:24:00.804Z,978.90
2023-01-26T01:29:00.716Z,978.83
2023-01-26T01:34:00.650Z,978.78
2023-01-26T01:39:00.605Z,978.71
2023-01-26T01:44:00.525Z,978.64
2023-01-26T01:49:00.465Z,978.62
2023-01-26T01:54:00.395Z,978.68
2023-01-26T01:59:00.349Z,978.65
2023-01-26T02:04:00.277Z,978.54
2023-01-26T02:09:00.232Z,978.42
2023-01-26T02:14:00.161Z,978.37
2023-01-26T02:19:00.102Z,978.37
2023-01-26T02:24:00.091Z,978.25
2023-01-26T02:28:59.959Z,978.20
2023-01-26T02:33:59.901Z,978.12
2023-01-26T02:38:59.839Z,978.17
2023-01-26T02:43:59.776Z,978.07
2023-01-26T02:48:59.725Z,978.02
2023-01-26T02:53:59.644Z,977.95
2023-01-26T02:58:59.586Z,977.94
2023-01-26T03:03:59.525Z,977.93
2023-01-26T03:08:59.453Z,977.93
2023-01-26T03:13:59.398Z,977.95
2023-01-26T03:18:59.353Z,978.03
2023-01-26T03:23:59.336Z,977.92
2023-01-26T03:28:59.213Z,977.94
2023-01-26T03:33:59.154Z,977.98
2023-01-26T03:38:59.094Z,977.94
2023-01-26T03:43:59.025Z,977.90
2023-01-26T03:48:58.965Z,977.85
2023-01-26T03:53:58.897Z,977.85
2023-01-26T03:58:58.842Z,977.77
2023-01-26T04:03:58.773Z,977.78
2023-01-26T04:08:58.714Z,977.79
2023-01-26T04:13:58.658Z,977.67
2023-01-26T04:18:58.595Z,977.60
2023-01-26T04:23:58.582Z,977.51
2023-01-26T04:28:58.471Z,977.50
2023-01-26T04:33:58.411Z,977.54
2023-01-26T04:38:58.353Z,977.55
2023-01-26T04:43:58.289Z,977.61
2023-01-26T04:48:58.223Z,977.52
2023-01-26T04:53:58.153Z,977.56
2023-01-26T04:58:58.132Z,977.51
2023-01-26T05:03:58.071Z,977.44
2023-01-26T05:08:57.983Z,977.46
2023-01-26T05:13:57.912Z,977.49
2023-01-26T05:18:57.864Z,977.47
2023-01-26T05:23:57.811Z,977.52
2023-01-26T05:28:57.739Z,977.47
2023-01-26T05:33:57.679Z,977.51
2023-01-26T05:38:57.609Z,977.48
2023-01-26T05:43:57.542Z,977.49
2023-01-26T05:48:57.499Z,977.41
2023-01-26T05:53:57.409Z,977.46
2023-01-26T05:58:57.387Z,977.36
2023-01-26T06:03:57.315Z,977.35
2023-01-26T06:08:57.237Z,977.46
2023-01-26T06:13:57.171Z,977.42
2023-01-26T06:18:57.111Z,977.41
2023-01-26T06:23:57.109Z,977.46
2023-01-26T06:28:57.077Z,977.42
2023-01-26T06:33:56.936Z,977.39
2023-01-26T06:38:58.611Z,977.38
2023-01-26T06:43:56.797Z,977.37
2023-01-26T06:48:56.770Z,977.42
2023-01-26T06:53:56.687Z,977.41
2023-01-26T06:58:56.617Z,977.47
2023-01-26T07:03:56.563Z,977.46
2023-01-26T07:08:56.496Z,977.45
2023-01-26T07:13:56.427Z,977.46
2023-01-26T07:18:56.376Z,977.41
2023-01-26T07:23:56.346Z,977.36
2023-01-26T07:28:56.241Z,977.36
2023-01-26T07:33:56.179Z,977.39
2023-01-26T07:38:56.116Z,977.35
2023-01-26T07:43:56.078Z,977.33
2023-01-26T07:48:56.011Z,977.31
2023-01-26T07:53:55.945Z,977.33
2023-01-26T07:58:55.900Z,977.24
2023-01-26T08:03:55.815Z,977.33
2023-01-26T08:08:55.769Z,977.27
2023-01-26T08:13:55.695Z,977.31
2023-01-26T08:18:55.653Z,977.28
2023-01-26T08:23:55.611Z,977.29
2023-01-26T08:28:55.523Z,977.25
2023-01-26T08:33:55.455Z,977.21
2023-01-26T08:38:55.396Z,977.19
2023-01-26T08:43:55.324Z,977.20
2023-01-26T08:48:55.282Z,977.32
2023-01-26T08:53:55.213Z,977.31
2023-01-26T08:58:55.157Z,977.28
2023-01-26T09:03:55.083Z,977.35
2023-01-26T09:08:55.055Z,977.34
2023-01-26T09:13:54.954Z,977.28
2023-01-26T09:18:54.936Z,977.26
2023-01-26T09:23:54.901Z,977.24
2023-01-26T09:28:54.775Z,977.27
2023-01-26T09:33:54.716Z,977.22
2023-01-26T09:38:54.660Z,977.15
2023-01-26T09:43:54.583Z,977.14
2023-01-26T09:48:54.535Z,977.12
2023-01-26T09:53:54.470Z,977.12
2023-01-26T09:58:54.464Z,977.14
2023-01-26T10:03:54.344Z,977.15
2023-01-26T10:08:54.281Z,977.07
2023-01-26T10:13:54.222Z,977.00
2023-01-26T10:18:54.152Z,977.01
2023-01-26T10:23:54.155Z,976.93
2023-01-26T10:28:54.043Z,976.96
2023-01-26T10:33:53.961Z,976.93
2023-01-26T10:38:53.913Z,976.89
2023-01-26T10:43:53.857Z,976.96
2023-01-26T10:48:53.786Z,976.92
2023-01-26T10:53:53.720Z,976.94
2023-01-26T10:58:53.675Z,976.98
2023-01-26T11:03:55.288Z,976.94
2023-01-26T11:08:53.570Z,976.85
2023-01-26T11:13:53.482Z,976.90
2023-01-26T11:18:53.425Z,976.81
2023-01-26T11:23:53.409Z,976.72
2023-01-26T11:28:53.300Z,976.69
2023-01-26T11:33:53.239Z,976.63
2023-01-26T11:38:53.181Z,976.65
2023-01-26T11:43:53.121Z,976.64
2023-01-26T11:48:53.069Z,976.63
2023-01-26T11:53:52.989Z,976.62
2023-01-26T11:58:52.939Z,976.61
2023-01-26T12:03:52.886Z,976.52
2023-01-26T12:08:52.830Z,976.49
2023-01-26T12:13:52.788Z,976.40
2023-01-26T12:19:02.025Z,976.35
2023-01-26T12:23:53.716Z,976.29
2023-01-26T12:28:52.580Z,976.16
2023-01-26T12:33:52.543Z,976.12
2023-01-26T12:38:52.459Z,976.12
2023-01-26T12:43:52.391Z,976.07
2023-01-26T12:48:52.336Z,975.99
2023-01-26T12:53:52.266Z,975.99
2023-01-26T12:58:52.210Z,975.94
2023-01-26T13:03:52.142Z,975.89
2023-01-26T13:08:52.085Z,975.81
2023-01-26T13:13:52.008Z,975.79
2023-01-26T13:18:51.960Z,975.73
2023-01-26T13:23:52.830Z,975.78
2023-01-26T13:28:51.838Z,975.79
2023-01-26T13:33:51.772Z,975.79
2023-01-26T13:38:51.708Z,975.75
2023-01-26T13:43:51.642Z,975.84
2023-01-26T13:48:51.586Z,975.82
2023-01-26T13:53:51.514Z,975.80
2023-01-26T13:58:51.453Z,975.81
2023-01-26T14:03:51.379Z,975.77
2023-01-26T14:08:51.331Z,975.69
2023-01-26T14:13:51.257Z,975.66
2023-01-26T14:18:51.201Z,975.66
2023-01-26T14:23:51.179Z,975.62
2023-01-26T14:28:51.073Z,975.55
2023-01-26T14:33:51.004Z,975.53
2023-01-26T14:38:50.947Z,975.54
2023-01-26T14:43:51.501Z,975.61
2023-01-26T14:48:50.832Z,975.70
2023-01-26T14:53:50.747Z,975.79
2023-01-26T14:58:50.693Z,975.88
2023-01-26T15:03:50.632Z,975.87
2023-01-26T15:08:50.565Z,975.83
2023-01-26T15:13:50.504Z,975.80
2023-01-26T15:18:50.443Z,975.75
2023-01-26T15:23:50.425Z,975.78
2023-01-26T15:28:50.317Z,975.87
2023-01-26T15:33:50.244Z,975.95
2023-01-26T15:38:50.192Z,975.95
2023-01-26T15:43:50.132Z,975.95
2023-01-26T15:48:50.067Z,975.95
2023-01-26T15:53:50.019Z,975.95
2023-01-26T15:58:49.961Z,975.84
2023-01-26T16:03:49.877Z,975.89
2023-01-26T16:08:49.813Z,975.89
2023-01-26T16:14:02.507Z,975.95
2023-01-26T16:18:50.695Z,975.97
2023-01-26T16:23:49.674Z,975.97
2023-01-26T16:28:49.567Z,975.96
2023-01-26T16:33:49.492Z,975.89
2023-01-26T16:38:49.444Z,975.96
2023-01-26T16:43:49.376Z,976.07
2023-01-26T16:48:49.311Z,976.06
2023-01-26T16:53:49.248Z,976.07
2023-01-26T16:58:49.194Z,976.04
2023-01-26T17:03:49.126Z,976.05
2023-01-26T17:08:49.069Z,976.01
2023-01-26T17:13:49.033Z,976.02
2023-01-26T17:18:48.942Z,976.07
2023-01-26T17:23:48.917Z,976.01
2023-01-26T17:28:48.809Z,975.96
2023-01-26T17:33:48.748Z,976.03
2023-01-26T17:38:48.687Z,976.04
2023-01-26T17:43:48.602Z,976.04
2023-01-26T17:48:48.553Z,976.14
2023-01-26T17:53:48.511Z,976.10
2023-01-26T17:58:48.429Z,976.04
2023-01-26T18:03:48.361Z,976.05
2023-01-26T18:08:48.302Z,976.01
2023-01-26T18:13:48.231Z,976.03
2023-01-26T18:18:48.181Z,976.04
2023-01-26T18:23:48.210Z,975.99
2023-01-26T18:28:48.073Z,976.09
2023-01-26T18:33:47.990Z,976.04
2023-01-26T18:38:47.921Z,976.08
2023-01-26T18:43:47.899Z,976.12
2023-01-26T18:48:47.801Z,976.11
2023-01-26T18:53:47.733Z,976.08
2023-01-26T18:58:47.679Z,976.03
2023-01-26T19:03:47.816Z,976.11
2023-01-26T19:08:47.558Z,976.04
2023-01-26T19:13:47.488Z,975.98
2023-01-26T19:18:47.439Z,975.98
2023-01-26T19:23:47.365Z,976.04
2023-01-26T19:28:50.228Z,976.03
2023-01-26T19:33:47.240Z,976.07
2023-01-26T19:38:47.181Z,976.04
2023-01-26T19:43:47.112Z,976.05
2023-01-26T19:48:47.067Z,976.03
2023-01-26T19:53:46.994Z,975.97
2023-01-26T19:58:46.925Z,975.95
2023-01-26T20:03:46.869Z,975.99
2023-01-26T20:08:46.800Z,975.94
2023-01-26T20:13:46.745Z,976.01
2023-01-26T20:18:46.681Z,976.02
2023-01-26T20:23:54.377Z,976.01
2023-01-26T20:28:47.552Z,976.02
2023-01-26T20:33:46.481Z,975.99
2023-01-26T20:38:46.424Z,975.98
2023-01-26T20:43:59.959Z,975.95
2023-01-26T20:48:47.303Z,975.92
2023-01-26T20:53:46.228Z,975.92
2023-01-26T20:58:46.166Z,975.94
2023-01-26T21:03:46.104Z,975.98
2023-01-26T21:08:46.046Z,975.87
2023-01-26T21:13:45.977Z,975.92
2023-01-26T21:18:45.921Z,975.96
2023-01-26T21:23:45.902Z,975.98
2023-01-26T21:28:45.785Z,975.99
2023-01-26T21:33:45.757Z,976.01
2023-01-26T21:38:45.728Z,975.96
2023-01-26T21:43:45.618Z,975.94
2023-01-26T21:48:45.544Z,976.02
2023-01-26T21:53:45.490Z,975.95
2023-01-26T21:58:45.418Z,975.95
2023-01-26T22:03:45.403Z,975.94
2023-01-26T22:08:45.290Z,975.81
2023-01-26T22:13:45.553Z,975.77
2023-01-26T22:18:45.196Z,975.79
2023-01-26T22:23:45.107Z,975.78
2023-01-26T22:28:45.035Z,975.75
2023-01-26T22:33:44.986Z,975.70
2023-01-26T22:38:44.904Z,975.66
2023-01-26T22:43:44.851Z,975.67
2023-01-26T22:48:44.792Z,975.62
2023-01-26T22:53:44.724Z,975.65
2023-01-26T22:58:56.969Z,975.64
2023-01-26T23:03:45.631Z,975.55
2023-01-26T23:08:44.537Z,975.64
2023-01-26T23:13:44.472Z,975.65
2023-01-26T23:18:44.415Z,975.63
2023-01-26T23:23:44.352Z,975.56
2023-01-26T23:28:44.301Z,975.60
2023-01-26T23:33:44.271Z,975.57
2023-01-26T23:38:44.206Z,975.55
2023-01-26T23:43:44.087Z,975.52
2023-01-26T23:48:44.029Z,975.47
2023-01-26T23:53:43.967Z,975.45
2023-01-26T23:58:43.951Z,975.47
